sensor_id;sensor_type;location;lat;lon;timestamp;P1;durP1;ratioP1;P2;durP2;ratioP2
18019;SDS011;9135;48.362;10.878;2023-03-23T00:02:28;1.83;;;1.70;;
18019;SDS011;9135;48.362;10.878;2023-03-23T00:04:54;1.70;;;1.60;;
18019;SDS011;9135;48.362;10.878;2023-03-23T00:07:21;1.53;;;1.40;;
18019;SDS011;9135;48.362;10.878;2023-03-23T00:09:50;2.17;;;1.97;;
18019;SDS011;9135;48.362;10.878;2023-03-23T00:12:28;3.70;;;2.17;;
18019;SDS011;9135;48.362;10.878;2023-03-23T00:14:58;3.30;;;2.90;;
18019;SDS011;9135;48.362;10.878;2023-03-23T00:17:25;1.47;;;1.40;;
18019;SDS011;9135;48.362;10.878;2023-03-23T00:19:51;2.13;;;2.03;;
18019;SDS011;9135;48.362;10.878;2023-03-23T00:22:17;2.40;;;1.97;;
18019;SDS011;9135;48.362;10.878;2023-03-23T00:24:46;1.90;;;1.80;;
18019;SDS011;9135;48.362;10.878;2023-03-23T00:27:13;2.90;;;2.20;;
18019;SDS011;9135;48.362;10.878;2023-03-23T00:29:39;2.40;;;2.30;;
18019;SDS011;9135;48.362;10.878;2023-03-23T00:32:06;1.53;;;1.53;;
18019;SDS011;9135;48.362;10.878;2023-03-23T00:34:37;1.33;;;1.33;;
18019;SDS011;9135;48.362;10.878;2023-03-23T00:37:05;1.40;;;1.23;;
18019;SDS011;9135;48.362;10.878;2023-03-23T00:39:32;2.50;;;2.30;;
18019;SDS011;9135;48.362;10.878;2023-03-23T00:41:58;2.73;;;2.20;;
18019;SDS011;9135;48.362;10.878;2023-03-23T00:44:27;1.43;;;1.43;;
18019;SDS011;9135;48.362;10.878;2023-03-23T00:46:55;3.30;;;3.07;;
18019;SDS011;9135;48.362;10.878;2023-03-23T00:49:22;3.57;;;2.37;;
18019;SDS011;9135;48.362;10.878;2023-03-23T00:51:55;3.30;;;2.17;;
18019;SDS011;9135;48.362;10.878;2023-03-23T00:54:22;6.07;;;1.67;;
18019;SDS011;9135;48.362;10.878;2023-03-23T00:56:48;3.00;;;2.80;;
18019;SDS011;9135;48.362;10.878;2023-03-23T00:59:14;2.40;;;2.23;;
18019;SDS011;9135;48.362;10.878;2023-03-23T01:01:41;2.77;;;2.57;;
18019;SDS011;9135;48.362;10.878;2023-03-23T01:04:07;2.13;;;1.60;;
18019;SDS011;9135;48.362;10.878;2023-03-23T01:06:37;3.47;;;2.23;;
18019;SDS011;9135;48.362;10.878;2023-03-23T01:09:04;1.60;;;1.50;;
18019;SDS011;9135;48.362;10.878;2023-03-23T01:11:30;5.03;;;2.90;;
18019;SDS011;9135;48.362;10.878;2023-03-23T01:13:57;2.13;;;2.03;;
18019;SDS011;9135;48.362;10.878;2023-03-23T01:16:23;1.83;;;1.73;;
18019;SDS011;9135;48.362;10.878;2023-03-23T01:18:49;3.47;;;2.30;;
18019;SDS011;9135;48.362;10.878;2023-03-23T01:21:17;3.03;;;2.53;;
18019;SDS011;9135;48.362;10.878;2023-03-23T01:23:43;1.60;;;1.60;;
18019;SDS011;9135;48.362;10.878;2023-03-23T01:26:11;1.83;;;1.67;;
18019;SDS011;9135;48.362;10.878;2023-03-23T01:28:37;2.40;;;1.97;;
18019;SDS011;9135;48.362;10.878;2023-03-23T01:31:05;2.23;;;2.13;;
18019;SDS011;9135;48.362;10.878;2023-03-23T01:33:31;2.33;;;2.13;;
18019;SDS011;9135;48.362;10.878;2023-03-23T01:36:01;2.43;;;2.33;;
18019;SDS011;9135;48.362;10.878;2023-03-23T01:38:27;2.40;;;2.23;;
18019;SDS011;9135;48.362;10.878;2023-03-23T01:40:53;2.37;;;1.70;;
18019;SDS011;9135;48.362;10.878;2023-03-23T01:43:19;3.10;;;2.20;;
18019;SDS011;9135;48.362;10.878;2023-03-23T01:45:45;3.30;;;2.77;;
18019;SDS011;9135;48.362;10.878;2023-03-23T01:48:13;2.43;;;2.23;;
18019;SDS011;9135;48.362;10.878;2023-03-23T01:53:13;3.57;;;2.83;;
18019;SDS011;9135;48.362;10.878;2023-03-23T01:55:39;2.30;;;2.13;;
18019;SDS011;9135;48.362;10.878;2023-03-23T01:58:06;3.00;;;2.53;;
18019;SDS011;9135;48.362;10.878;2023-03-23T02:00:33;2.30;;;2.07;;
18019;SDS011;9135;48.362;10.878;2023-03-23T02:03:02;2.40;;;2.30;;
18019;SDS011;9135;48.362;10.878;2023-03-23T02:05:32;1.80;;;1.70;;
18019;SDS011;9135;48.362;10.878;2023-03-23T02:08:00;2.57;;;2.47;;
18019;SDS011;9135;48.362;10.878;2023-03-23T02:10:28;5.73;;;2.33;;
18019;SDS011;9135;48.362;10.878;2023-03-23T02:12:55;2.40;;;2.20;;
18019;SDS011;9135;48.362;10.878;2023-03-23T02:15:21;1.40;;;1.40;;
18019;SDS011;9135;48.362;10.878;2023-03-23T02:17:59;2.23;;;1.83;;
18019;SDS011;9135;48.362;10.878;2023-03-23T02:25:40;2.37;;;2.13;;
18019;SDS011;9135;48.362;10.878;2023-03-23T02:33:36;2.67;;;2.10;;
18019;SDS011;9135;48.362;10.878;2023-03-23T02:38:49;2.53;;;2.43;;
18019;SDS011;9135;48.362;10.878;2023-03-23T02:41:20;2.70;;;2.50;;
18019;SDS011;9135;48.362;10.878;2023-03-23T02:43:48;3.70;;;2.57;;
18019;SDS011;9135;48.362;10.878;2023-03-23T02:46:15;2.23;;;2.10;;
18019;SDS011;9135;48.362;10.878;2023-03-23T02:48:41;2.10;;;1.97;;
18019;SDS011;9135;48.362;10.878;2023-03-23T02:51:08;2.70;;;2.50;;
18019;SDS011;9135;48.362;10.878;2023-03-23T02:53:36;3.87;;;2.10;;
18019;SDS011;9135;48.362;10.878;2023-03-23T02:56:03;3.27;;;2.97;;
18019;SDS011;9135;48.362;10.878;2023-03-23T02:58:30;3.13;;;1.77;;
18019;SDS011;9135;48.362;10.878;2023-03-23T03:00:56;1.80;;;1.77;;
18019;SDS011;9135;48.362;10.878;2023-03-23T03:03:25;2.27;;;2.17;;
18019;SDS011;9135;48.362;10.878;2023-03-23T03:06:10;10.30;;;2.10;;
18019;SDS011;9135;48.362;10.878;2023-03-23T03:08:50;1.97;;;1.80;;
18019;SDS011;9135;48.362;10.878;2023-03-23T03:11:18;1.63;;;1.53;;
18019;SDS011;9135;48.362;10.878;2023-03-23T03:18:57;2.03;;;1.93;;
18019;SDS011;9135;48.362;10.878;2023-03-23T03:21:25;2.50;;;2.30;;
18019;SDS011;9135;48.362;10.878;2023-03-23T03:23:54;2.47;;;2.20;;
18019;SDS011;9135;48.362;10.878;2023-03-23T03:26:23;1.80;;;1.70;;
18019;SDS011;9135;48.362;10.878;2023-03-23T03:28:51;2.90;;;2.77;;
18019;SDS011;9135;48.362;10.878;2023-03-23T03:31:19;3.03;;;2.23;;
18019;SDS011;9135;48.362;10.878;2023-03-23T03:33:46;1.60;;;1.60;;
18019;SDS011;9135;48.362;10.878;2023-03-23T03:36:16;2.13;;;2.03;;
18019;SDS011;9135;48.362;10.878;2023-03-23T03:38:43;2.30;;;2.07;;
18019;SDS011;9135;48.362;10.878;2023-03-23T03:41:09;2.30;;;2.10;;
18019;SDS011;9135;48.362;10.878;2023-03-23T03:43:35;5.13;;;2.00;;
18019;SDS011;9135;48.362;10.878;2023-03-23T03:46:02;3.83;;;1.87;;
18019;SDS011;9135;48.362;10.878;2023-03-23T03:48:28;1.93;;;1.77;;
18019;SDS011;9135;48.362;10.878;2023-03-23T03:50:54;6.93;;;2.43;;
18019;SDS011;9135;48.362;10.878;2023-03-23T03:53:22;2.60;;;2.43;;
18019;SDS011;9135;48.362;10.878;2023-03-23T03:55:48;2.67;;;2.57;;
18019;SDS011;9135;48.362;10.878;2023-03-23T03:58:14;1.90;;;1.80;;
18019;SDS011;9135;48.362;10.878;2023-03-23T04:00:41;1.80;;;1.70;;
18019;SDS011;9135;48.362;10.878;2023-03-23T04:03:07;8.17;;;1.87;;
18019;SDS011;9135;48.362;10.878;2023-03-23T04:05:34;9.27;;;2.50;;
18019;SDS011;9135;48.362;10.878;2023-03-23T04:08:01;2.50;;;2.30;;
18019;SDS011;9135;48.362;10.878;2023-03-23T04:10:29;1.70;;;1.70;;
18019;SDS011;9135;48.362;10.878;2023-03-23T04:12:56;3.20;;;2.47;;
18019;SDS011;9135;48.362;10.878;2023-03-23T04:15:22;1.70;;;1.60;;
18019;SDS011;9135;48.362;10.878;2023-03-23T04:17:48;2.17;;;2.00;;
18019;SDS011;9135;48.362;10.878;2023-03-23T04:20:15;1.73;;;1.63;;
18019;SDS011;9135;48.362;10.878;2023-03-23T04:22:45;3.73;;;2.90;;
18019;SDS011;9135;48.362;10.878;2023-03-23T04:25:14;3.83;;;2.03;;
18019;SDS011;9135;48.362;10.878;2023-03-23T04:27:41;5.70;;;1.73;;
18019;SDS011;9135;48.362;10.878;2023-03-23T04:30:11;1.90;;;1.10;;
18019;SDS011;9135;48.362;10.878;2023-03-23T04:32:38;1.63;;;1.53;;
18019;SDS011;9135;48.362;10.878;2023-03-23T04:35:11;4.73;;;1.80;;
18019;SDS011;9135;48.362;10.878;2023-03-23T04:37:39;1.47;;;1.43;;
18019;SDS011;9135;48.362;10.878;2023-03-23T04:40:06;2.43;;;2.33;;
18019;SDS011;9135;48.362;10.878;2023-03-23T04:42:36;1.37;;;1.37;;
18019;SDS011;9135;48.362;10.878;2023-03-23T04:45:03;1.97;;;1.60;;
18019;SDS011;9135;48.362;10.878;2023-03-23T04:47:32;2.27;;;2.07;;
18019;SDS011;9135;48.362;10.878;2023-03-23T04:49:58;2.27;;;2.07;;
18019;SDS011;9135;48.362;10.878;2023-03-23T04:52:24;2.73;;;1.70;;
18019;SDS011;9135;48.362;10.878;2023-03-23T04:54:51;2.60;;;1.67;;
18019;SDS011;9135;48.362;10.878;2023-03-23T04:57:18;1.57;;;1.20;;
18019;SDS011;9135;48.362;10.878;2023-03-23T04:59:44;1.77;;;1.67;;
18019;SDS011;9135;48.362;10.878;2023-03-23T05:02:10;1.73;;;1.63;;
18019;SDS011;9135;48.362;10.878;2023-03-23T05:04:38;1.77;;;1.67;;
18019;SDS011;9135;48.362;10.878;2023-03-23T05:07:05;1.80;;;1.70;;
18019;SDS011;9135;48.362;10.878;2023-03-23T05:09:31;4.53;;;2.00;;
18019;SDS011;9135;48.362;10.878;2023-03-23T05:11:57;2.10;;;1.63;;
18019;SDS011;9135;48.362;10.878;2023-03-23T05:14:24;0.97;;;0.97;;
18019;SDS011;9135;48.362;10.878;2023-03-23T05:16:51;2.57;;;2.40;;
18019;SDS011;9135;48.362;10.878;2023-03-23T05:19:17;2.37;;;2.23;;
18019;SDS011;9135;48.362;10.878;2023-03-23T05:21:43;1.30;;;1.30;;
18019;SDS011;9135;48.362;10.878;2023-03-23T05:24:09;2.10;;;2.00;;
18019;SDS011;9135;48.362;10.878;2023-03-23T05:26:36;2.13;;;1.93;;
18019;SDS011;9135;48.362;10.878;2023-03-23T05:29:02;2.13;;;1.83;;
18019;SDS011;9135;48.362;10.878;2023-03-23T05:31:28;1.53;;;1.53;;
18019;SDS011;9135;48.362;10.878;2023-03-23T05:33:54;1.93;;;1.83;;
18019;SDS011;9135;48.362;10.878;2023-03-23T05:36:20;2.03;;;1.90;;
18019;SDS011;9135;48.362;10.878;2023-03-23T05:38:47;2.93;;;1.87;;
18019;SDS011;9135;48.362;10.878;2023-03-23T05:41:14;1.47;;;1.47;;
18019;SDS011;9135;48.362;10.878;2023-03-23T05:43:40;2.03;;;1.93;;
18019;SDS011;9135;48.362;10.878;2023-03-23T05:46:06;1.57;;;1.57;;
18019;SDS011;9135;48.362;10.878;2023-03-23T05:48:33;1.80;;;1.70;;
18019;SDS011;9135;48.362;10.878;2023-03-23T05:50:59;3.20;;;1.83;;
18019;SDS011;9135;48.362;10.878;2023-03-23T05:53:26;2.50;;;1.57;;
18019;SDS011;9135;48.362;10.878;2023-03-23T05:55:52;1.20;;;1.20;;
18019;SDS011;9135;48.362;10.878;2023-03-23T05:58:18;1.77;;;1.77;;
18019;SDS011;9135;48.362;10.878;2023-03-23T06:00:44;2.07;;;1.97;;
18019;SDS011;9135;48.362;10.878;2023-03-23T06:03:11;2.43;;;1.77;;
18019;SDS011;9135;48.362;10.878;2023-03-23T06:05:44;2.03;;;1.83;;
18019;SDS011;9135;48.362;10.878;2023-03-23T06:08:10;2.77;;;2.50;;
18019;SDS011;9135;48.362;10.878;2023-03-23T06:10:37;1.20;;;1.20;;
18019;SDS011;9135;48.362;10.878;2023-03-23T06:13:03;3.17;;;1.83;;
18019;SDS011;9135;48.362;10.878;2023-03-23T06:15:30;2.80;;;1.83;;
18019;SDS011;9135;48.362;10.878;2023-03-23T06:18:03;4.10;;;2.13;;
18019;SDS011;9135;48.362;10.878;2023-03-23T06:20:30;4.60;;;2.40;;
18019;SDS011;9135;48.362;10.878;2023-03-23T06:22:56;1.83;;;1.73;;
18019;SDS011;9135;48.362;10.878;2023-03-23T06:25:22;1.23;;;1.23;;
18019;SDS011;9135;48.362;10.878;2023-03-23T06:27:49;1.87;;;1.67;;
18019;SDS011;9135;48.362;10.878;2023-03-23T06:30:17;2.27;;;2.07;;
18019;SDS011;9135;48.362;10.878;2023-03-23T06:32:43;1.70;;;1.60;;
18019;SDS011;9135;48.362;10.878;2023-03-23T06:35:11;1.83;;;1.73;;
18019;SDS011;9135;48.362;10.878;2023-03-23T06:37:37;2.17;;;2.07;;
18019;SDS011;9135;48.362;10.878;2023-03-23T06:40:04;2.60;;;1.40;;
18019;SDS011;9135;48.362;10.878;2023-03-23T06:42:31;1.33;;;1.27;;
18019;SDS011;9135;48.362;10.878;2023-03-23T06:44:57;1.13;;;1.13;;
18019;SDS011;9135;48.362;10.878;2023-03-23T06:47:25;1.97;;;1.83;;
18019;SDS011;9135;48.362;10.878;2023-03-23T06:49:51;1.83;;;1.73;;
18019;SDS011;9135;48.362;10.878;2023-03-23T06:52:17;1.40;;;1.33;;
18019;SDS011;9135;48.362;10.878;2023-03-23T06:54:43;3.17;;;2.07;;
18019;SDS011;9135;48.362;10.878;2023-03-23T06:57:09;2.10;;;2.00;;
18019;SDS011;9135;48.362;10.878;2023-03-23T06:59:35;2.03;;;1.83;;
18019;SDS011;9135;48.362;10.878;2023-03-23T07:02:02;2.03;;;1.90;;
18019;SDS011;9135;48.362;10.878;2023-03-23T07:04:29;2.03;;;1.70;;
18019;SDS011;9135;48.362;10.878;2023-03-23T07:06:55;2.90;;;1.90;;
18019;SDS011;9135;48.362;10.878;2023-03-23T07:09:21;2.07;;;1.97;;
18019;SDS011;9135;48.362;10.878;2023-03-23T07:11:47;1.70;;;1.67;;
18019;SDS011;9135;48.362;10.878;2023-03-23T07:14:16;2.10;;;2.00;;
18019;SDS011;9135;48.362;10.878;2023-03-23T07:16:42;2.65;;;2.45;;
18019;SDS011;9135;48.362;10.878;2023-03-23T07:19:08;1.55;;;1.45;;
18019;SDS011;9135;48.362;10.878;2023-03-23T07:21:34;1.40;;;1.40;;
18019;SDS011;9135;48.362;10.878;2023-03-23T07:24:00;2.00;;;1.33;;
18019;SDS011;9135;48.362;10.878;2023-03-23T07:26:26;1.77;;;1.55;;
18019;SDS011;9135;48.362;10.878;2023-03-23T07:28:52;1.80;;;1.70;;
18019;SDS011;9135;48.362;10.878;2023-03-23T07:31:18;1.90;;;1.80;;
18019;SDS011;9135;48.362;10.878;2023-03-23T07:33:45;1.17;;;1.17;;
18019;SDS011;9135;48.362;10.878;2023-03-23T07:36:11;0.80;;;0.80;;
18019;SDS011;9135;48.362;10.878;2023-03-23T07:38:37;1.90;;;1.80;;
18019;SDS011;9135;48.362;10.878;2023-03-23T07:41:04;1.83;;;1.73;;
18019;SDS011;9135;48.362;10.878;2023-03-23T07:43:31;4.00;;;2.45;;
18019;SDS011;9135;48.362;10.878;2023-03-23T07:45:57;1.20;;;1.15;;
18019;SDS011;9135;48.362;10.878;2023-03-23T07:48:23;1.83;;;1.70;;
18019;SDS011;9135;48.362;10.878;2023-03-23T07:50:49;1.35;;;1.27;;
18019;SDS011;9135;48.362;10.878;2023-03-23T07:53:15;2.13;;;2.03;;
18019;SDS011;9135;48.362;10.878;2023-03-23T07:55:41;1.50;;;1.40;;
18019;SDS011;9135;48.362;10.878;2023-03-23T07:58:07;1.83;;;1.60;;
18019;SDS011;9135;48.362;10.878;2023-03-23T08:00:33;1.73;;;1.63;;
18019;SDS011;9135;48.362;10.878;2023-03-23T08:03:00;2.58;;;1.55;;
18019;SDS011;9135;48.362;10.878;2023-03-23T08:05:27;1.25;;;1.20;;
18019;SDS011;9135;48.362;10.878;2023-03-23T08:07:53;2.38;;;1.20;;
18019;SDS011;9135;48.362;10.878;2023-03-23T08:10:20;1.80;;;1.70;;
18019;SDS011;9135;48.362;10.878;2023-03-23T08:12:50;1.77;;;1.67;;
18019;SDS011;9135;48.362;10.878;2023-03-23T08:15:17;1.83;;;1.73;;
18019;SDS011;9135;48.362;10.878;2023-03-23T08:17:44;1.77;;;1.67;;
18019;SDS011;9135;48.362;10.878;2023-03-23T08:20:11;2.75;;;2.08;;
18019;SDS011;9135;48.362;10.878;2023-03-23T08:22:39;1.63;;;1.55;;
18019;SDS011;9135;48.362;10.878;2023-03-23T08:25:05;1.52;;;1.40;;
18019;SDS011;9135;48.362;10.878;2023-03-23T08:27:32;1.73;;;1.63;;
18019;SDS011;9135;48.362;10.878;2023-03-23T08:29:58;1.85;;;1.35;;
18019;SDS011;9135;48.362;10.878;2023-03-23T08:32:24;1.58;;;1.58;;
18019;SDS011;9135;48.362;10.878;2023-03-23T08:34:51;0.90;;;0.90;;
18019;SDS011;9135;48.362;10.878;2023-03-23T08:37:17;2.03;;;1.88;;
18019;SDS011;9135;48.362;10.878;2023-03-23T08:39:43;1.45;;;1.40;;
18019;SDS011;9135;48.362;10.878;2023-03-23T08:42:10;1.45;;;1.35;;
18019;SDS011;9135;48.362;10.878;2023-03-23T08:44:36;2.15;;;1.00;;
18019;SDS011;9135;48.362;10.878;2023-03-23T08:47:02;0.85;;;0.85;;
18019;SDS011;9135;48.362;10.878;2023-03-23T08:49:30;0.80;;;0.80;;
18019;SDS011;9135;48.362;10.878;2023-03-23T08:51:57;2.25;;;1.10;;
18019;SDS011;9135;48.362;10.878;2023-03-23T08:54:23;0.88;;;0.88;;
18019;SDS011;9135;48.362;10.878;2023-03-23T08:56:50;0.80;;;0.80;;
18019;SDS011;9135;48.362;10.878;2023-03-23T08:59:16;0.77;;;0.77;;
18019;SDS011;9135;48.362;10.878;2023-03-23T09:01:42;1.00;;;1.00;;
18019;SDS011;9135;48.362;10.878;2023-03-23T09:04:08;2.38;;;1.52;;
18019;SDS011;9135;48.362;10.878;2023-03-23T09:06:35;1.50;;;1.20;;
18019;SDS011;9135;48.362;10.878;2023-03-23T09:09:03;0.80;;;0.80;;
18019;SDS011;9135;48.362;10.878;2023-03-23T09:11:32;6.35;;;1.80;;
18019;SDS011;9135;48.362;10.878;2023-03-23T09:13:58;1.08;;;0.77;;
18019;SDS011;9135;48.362;10.878;2023-03-23T09:16:24;0.70;;;0.70;;
18019;SDS011;9135;48.362;10.878;2023-03-23T09:18:50;0.90;;;0.90;;
18019;SDS011;9135;48.362;10.878;2023-03-23T09:21:16;1.35;;;0.95;;
18019;SDS011;9135;48.362;10.878;2023-03-23T09:23:42;0.80;;;0.80;;
18019;SDS011;9135;48.362;10.878;2023-03-23T09:26:09;0.80;;;0.80;;
18019;SDS011;9135;48.362;10.878;2023-03-23T09:28:35;0.70;;;0.70;;
18019;SDS011;9135;48.362;10.878;2023-03-23T09:31:02;0.77;;;0.77;;
18019;SDS011;9135;48.362;10.878;2023-03-23T09:33:29;0.90;;;0.90;;
18019;SDS011;9135;48.362;10.878;2023-03-23T09:35:58;1.65;;;1.52;;
18019;SDS011;9135;48.362;10.878;2023-03-23T09:38:24;1.10;;;1.10;;
18019;SDS011;9135;48.362;10.878;2023-03-23T09:43:54;1.00;;;1.00;;
18019;SDS011;9135;48.362;10.878;2023-03-23T09:48:53;0.60;;;0.60;;
18019;SDS011;9135;48.362;10.878;2023-03-23T09:54:09;0.90;;;0.90;;
18019;SDS011;9135;48.362;10.878;2023-03-23T09:56:36;0.93;;;0.93;;
18019;SDS011;9135;48.362;10.878;2023-03-23T09:59:23;1.80;;;1.70;;
18019;SDS011;9135;48.362;10.878;2023-03-23T10:01:51;1.15;;;1.10;;
18019;SDS011;9135;48.362;10.878;2023-03-23T10:07:09;0.93;;;0.93;;
18019;SDS011;9135;48.362;10.878;2023-03-23T10:09:35;1.33;;;1.25;;
18019;SDS011;9135;48.362;10.878;2023-03-23T10:12:06;0.88;;;0.88;;
18019;SDS011;9135;48.362;10.878;2023-03-23T10:22:17;0.57;;;0.57;;
18019;SDS011;9135;48.362;10.878;2023-03-23T10:27:18;2.47;;;1.50;;
18019;SDS011;9135;48.362;10.878;2023-03-23T10:29:48;0.70;;;0.70;;
18019;SDS011;9135;48.362;10.878;2023-03-23T10:35:05;0.57;;;0.57;;
18019;SDS011;9135;48.362;10.878;2023-03-23T10:37:34;0.95;;;0.95;;
18019;SDS011;9135;48.362;10.878;2023-03-23T10:40:02;1.25;;;1.25;;
18019;SDS011;9135;48.362;10.878;2023-03-23T10:44:55;1.73;;;0.90;;
18019;SDS011;9135;48.362;10.878;2023-03-23T10:47:22;0.98;;;0.88;;
18019;SDS011;9135;48.362;10.878;2023-03-23T10:49:49;1.85;;;0.77;;
18019;SDS011;9135;48.362;10.878;2023-03-23T10:54:55;0.93;;;0.93;;
18019;SDS011;9135;48.362;10.878;2023-03-23T10:57:26;2.00;;;1.13;;
18019;SDS011;9135;48.362;10.878;2023-03-23T11:02:31;1.17;;;1.17;;
18019;SDS011;9135;48.362;10.878;2023-03-23T11:05:06;1.27;;;1.27;;
18019;SDS011;9135;48.362;10.878;2023-03-23T11:07:34;0.95;;;0.90;;
18019;SDS011;9135;48.362;10.878;2023-03-23T11:10:05;4.65;;;1.05;;
18019;SDS011;9135;48.362;10.878;2023-03-23T11:12:33;0.90;;;0.88;;
18019;SDS011;9135;48.362;10.878;2023-03-23T11:15:04;1.00;;;0.98;;
18019;SDS011;9135;48.362;10.878;2023-03-23T11:17:30;1.48;;;0.88;;
18019;SDS011;9135;48.362;10.878;2023-03-23T11:19:56;5.05;;;1.52;;
18019;SDS011;9135;48.362;10.878;2023-03-23T11:22:29;1.08;;;1.05;;
18019;SDS011;9135;48.362;10.878;2023-03-23T11:24:59;1.55;;;1.45;;
18019;SDS011;9135;48.362;10.878;2023-03-23T11:27:26;1.20;;;1.10;;
18019;SDS011;9135;48.362;10.878;2023-03-23T11:32:19;0.73;;;0.73;;
18019;SDS011;9135;48.362;10.878;2023-03-23T11:34:48;1.52;;;1.42;;
18019;SDS011;9135;48.362;10.878;2023-03-23T11:37:18;0.77;;;0.77;;
18019;SDS011;9135;48.362;10.878;2023-03-23T11:42:24;0.95;;;0.90;;
18019;SDS011;9135;48.362;10.878;2023-03-23T11:44:54;0.88;;;0.88;;
18019;SDS011;9135;48.362;10.878;2023-03-23T11:47:35;1.05;;;1.02;;
18019;SDS011;9135;48.362;10.878;2023-03-23T11:52:51;0.60;;;0.60;;
18019;SDS011;9135;48.362;10.878;2023-03-23T11:58:12;0.93;;;0.93;;
18019;SDS011;9135;48.362;10.878;2023-03-23T12:00:41;6.60;;;0.90;;
18019;SDS011;9135;48.362;10.878;2023-03-23T12:03:12;1.15;;;1.13;;
18019;SDS011;9135;48.362;10.878;2023-03-23T12:11:32;2.30;;;1.23;;
18019;SDS011;9135;48.362;10.878;2023-03-23T12:14:11;1.20;;;1.20;;
18019;SDS011;9135;48.362;10.878;2023-03-23T12:30:33;0.65;;;0.65;;
18019;SDS011;9135;48.362;10.878;2023-03-23T12:43:59;0.80;;;0.80;;
18019;SDS011;9135;48.362;10.878;2023-03-23T12:48:55;2.00;;;1.40;;
18019;SDS011;9135;48.362;10.878;2023-03-23T12:54:32;1.08;;;1.08;;
18019;SDS011;9135;48.362;10.878;2023-03-23T12:57:10;1.00;;;1.00;;
18019;SDS011;9135;48.362;10.878;2023-03-23T12:59:42;1.30;;;1.20;;
18019;SDS011;9135;48.362;10.878;2023-03-23T13:02:16;1.48;;;0.73;;
18019;SDS011;9135;48.362;10.878;2023-03-23T13:04:50;1.73;;;1.63;;
18019;SDS011;9135;48.362;10.878;2023-03-23T13:07:18;0.60;;;0.60;;
18019;SDS011;9135;48.362;10.878;2023-03-23T13:09:48;1.20;;;0.60;;
18019;SDS011;9135;48.362;10.878;2023-03-23T13:12:16;0.70;;;0.70;;
18019;SDS011;9135;48.362;10.878;2023-03-23T13:22:26;1.42;;;1.42;;
18019;SDS011;9135;48.362;10.878;2023-03-23T13:24:55;2.70;;;1.30;;
18019;SDS011;9135;48.362;10.878;2023-03-23T13:27:23;2.30;;;1.10;;
18019;SDS011;9135;48.362;10.878;2023-03-23T13:29:50;0.80;;;0.80;;
18019;SDS011;9135;48.362;10.878;2023-03-23T13:32:17;0.80;;;0.80;;
18019;SDS011;9135;48.362;10.878;2023-03-23T13:34:43;0.98;;;0.98;;
18019;SDS011;9135;48.362;10.878;2023-03-23T13:39:54;1.80;;;0.93;;
18019;SDS011;9135;48.362;10.878;2023-03-23T13:42:25;1.00;;;1.00;;
18019;SDS011;9135;48.362;10.878;2023-03-23T13:49:51;1.08;;;1.08;;
18019;SDS011;9135;48.362;10.878;2023-03-23T13:52:22;1.27;;;0.85;;
18019;SDS011;9135;48.362;10.878;2023-03-23T13:54:49;1.55;;;0.90;;
18019;SDS011;9135;48.362;10.878;2023-03-23T13:57:24;0.93;;;0.93;;
18019;SDS011;9135;48.362;10.878;2023-03-23T13:59:55;0.90;;;0.90;;
18019;SDS011;9135;48.362;10.878;2023-03-23T14:02:29;0.80;;;0.70;;
18019;SDS011;9135;48.362;10.878;2023-03-23T14:04:56;0.80;;;0.80;;
18019;SDS011;9135;48.362;10.878;2023-03-23T14:07:23;0.88;;;0.88;;
18019;SDS011;9135;48.362;10.878;2023-03-23T14:09:49;0.70;;;0.70;;
18019;SDS011;9135;48.362;10.878;2023-03-23T14:14:44;1.13;;;1.13;;
18019;SDS011;9135;48.362;10.878;2023-03-23T14:17:14;0.77;;;0.77;;
18019;SDS011;9135;48.362;10.878;2023-03-23T14:19:42;2.70;;;1.38;;
18019;SDS011;9135;48.362;10.878;2023-03-23T14:22:17;1.80;;;1.38;;
18019;SDS011;9135;48.362;10.878;2023-03-23T14:24:43;0.77;;;0.77;;
18019;SDS011;9135;48.362;10.878;2023-03-23T14:29:36;1.15;;;1.10;;
18019;SDS011;9135;48.362;10.878;2023-03-23T14:32:02;1.80;;;1.00;;
18019;SDS011;9135;48.362;10.878;2023-03-23T14:34:31;0.80;;;0.80;;
18019;SDS011;9135;48.362;10.878;2023-03-23T14:36:58;0.98;;;0.98;;
18019;SDS011;9135;48.362;10.878;2023-03-23T14:39:25;1.00;;;1.00;;
18019;SDS011;9135;48.362;10.878;2023-03-23T14:41:53;1.10;;;1.00;;
18019;SDS011;9135;48.362;10.878;2023-03-23T14:44:24;0.82;;;0.82;;
18019;SDS011;9135;48.362;10.878;2023-03-23T14:46:51;5.10;;;1.08;;
18019;SDS011;9135;48.362;10.878;2023-03-23T14:49:19;0.60;;;0.60;;
18019;SDS011;9135;48.362;10.878;2023-03-23T14:51:47;1.02;;;1.02;;
18019;SDS011;9135;48.362;10.878;2023-03-23T14:54:13;1.65;;;1.55;;
18019;SDS011;9135;48.362;10.878;2023-03-23T14:56:39;1.20;;;1.20;;
18019;SDS011;9135;48.362;10.878;2023-03-23T14:59:09;0.70;;;0.70;;
18019;SDS011;9135;48.362;10.878;2023-03-23T15:01:36;1.25;;;1.23;;
18019;SDS011;9135;48.362;10.878;2023-03-23T15:04:08;1.30;;;1.20;;
18019;SDS011;9135;48.362;10.878;2023-03-23T15:06:36;0.90;;;0.90;;
18019;SDS011;9135;48.362;10.878;2023-03-23T15:09:04;1.45;;;1.35;;
18019;SDS011;9135;48.362;10.878;2023-03-23T15:11:34;0.73;;;0.73;;
18019;SDS011;9135;48.362;10.878;2023-03-23T15:14:17;1.02;;;1.02;;
18019;SDS011;9135;48.362;10.878;2023-03-23T15:16:49;1.52;;;1.42;;
18019;SDS011;9135;48.362;10.878;2023-03-23T15:19:18;0.98;;;0.98;;
18019;SDS011;9135;48.362;10.878;2023-03-23T15:21:47;1.00;;;0.90;;
18019;SDS011;9135;48.362;10.878;2023-03-23T15:24:26;1.27;;;1.27;;
18019;SDS011;9135;48.362;10.878;2023-03-23T15:26:53;1.40;;;1.40;;
18019;SDS011;9135;48.362;10.878;2023-03-23T15:29:20;1.55;;;1.08;;
18019;SDS011;9135;48.362;10.878;2023-03-23T15:31:49;0.93;;;0.93;;
18019;SDS011;9135;48.362;10.878;2023-03-23T15:34:19;1.10;;;1.05;;
18019;SDS011;9135;48.362;10.878;2023-03-23T15:36:46;1.48;;;1.38;;
18019;SDS011;9135;48.362;10.878;2023-03-23T15:39:16;1.10;;;1.10;;
18019;SDS011;9135;48.362;10.878;2023-03-23T15:41:46;1.85;;;1.50;;
18019;SDS011;9135;48.362;10.878;2023-03-23T15:44:20;0.90;;;0.90;;
18019;SDS011;9135;48.362;10.878;2023-03-23T15:46:48;1.30;;;1.20;;
18019;SDS011;9135;48.362;10.878;2023-03-23T15:49:15;0.80;;;0.80;;
18019;SDS011;9135;48.362;10.878;2023-03-23T15:51:41;0.65;;;0.65;;
18019;SDS011;9135;48.362;10.878;2023-03-23T15:54:14;0.88;;;0.88;;
18019;SDS011;9135;48.362;10.878;2023-03-23T15:56:41;1.00;;;1.00;;
18019;SDS011;9135;48.362;10.878;2023-03-23T15:59:08;0.93;;;0.93;;
18019;SDS011;9135;48.362;10.878;2023-03-23T16:01:34;0.80;;;0.80;;
18019;SDS011;9135;48.362;10.878;2023-03-23T16:04:06;0.60;;;0.60;;
18019;SDS011;9135;48.362;10.878;2023-03-23T16:06:33;0.90;;;0.90;;
18019;SDS011;9135;48.362;10.878;2023-03-23T16:09:00;4.97;;;1.30;;
18019;SDS011;9135;48.362;10.878;2023-03-23T16:11:28;1.42;;;1.23;;
18019;SDS011;9135;48.362;10.878;2023-03-23T16:13:55;1.45;;;1.08;;
18019;SDS011;9135;48.362;10.878;2023-03-23T16:16:26;0.95;;;0.88;;
18019;SDS011;9135;48.362;10.878;2023-03-23T16:18:52;0.68;;;0.68;;
18019;SDS011;9135;48.362;10.878;2023-03-23T16:21:18;1.30;;;1.30;;
18019;SDS011;9135;48.362;10.878;2023-03-23T16:23:44;0.80;;;0.80;;
18019;SDS011;9135;48.362;10.878;2023-03-23T16:26:11;6.93;;;1.00;;
18019;SDS011;9135;48.362;10.878;2023-03-23T16:28:38;2.00;;;1.23;;
18019;SDS011;9135;48.362;10.878;2023-03-23T16:31:05;0.88;;;0.88;;
18019;SDS011;9135;48.362;10.878;2023-03-23T16:33:31;1.20;;;1.20;;
18019;SDS011;9135;48.362;10.878;2023-03-23T16:35:57;1.17;;;1.08;;
18019;SDS011;9135;48.362;10.878;2023-03-23T16:38:23;1.08;;;0.98;;
18019;SDS011;9135;48.362;10.878;2023-03-23T16:40:49;0.68;;;0.68;;
18019;SDS011;9135;48.362;10.878;2023-03-23T16:43:15;1.17;;;1.17;;
18019;SDS011;9135;48.362;10.878;2023-03-23T16:45:42;0.93;;;0.93;;
18019;SDS011;9135;48.362;10.878;2023-03-23T16:48:09;0.90;;;0.90;;
18019;SDS011;9135;48.362;10.878;2023-03-23T16:50:35;1.20;;;0.82;;
18019;SDS011;9135;48.362;10.878;2023-03-23T16:53:02;0.88;;;0.88;;